createdAt,value
2023-03-18T00:01:35.591Z,9.90
2023-03-18T00:04:57.186Z,9.80
2023-03-18T00:08:18.795Z,9.80
2023-03-18T00:11:41.710Z,9.80
2023-03-18T00:15:03.465Z,9.90
2023-03-18T00:18:25.073Z,9.90
2023-03-18T00:21:46.704Z,10.00
2023-03-18T00:25:09.244Z,10.00
2023-03-18T00:28:32.171Z,10.10
2023-03-18T00:31:53.745Z,10.20
2023-03-18T00:35:15.340Z,10.20
2023-03-18T00:38:36.955Z,10.30
2023-03-18T00:41:58.538Z,10.30
2023-03-18T00:45:21.490Z,10.20
2023-03-18T00:48:43.159Z,10.20
2023-03-18T00:52:04.964Z,10.20
2023-03-18T00:55:26.743Z,10.30
2023-03-18T00:58:49.368Z,10.30
2023-03-18T01:02:12.371Z,10.20
2023-03-18T01:05:34.469Z,10.20
2023-03-18T01:08:56.586Z,10.20
2023-03-18T01:12:18.174Z,10.10
2023-03-18T01:15:39.811Z,10.20
2023-03-18T01:19:02.773Z,10.10
2023-03-18T01:22:24.354Z,10.20
2023-03-18T01:25:46.098Z,10.30
2023-03-18T01:29:07.761Z,10.40
2023-03-18T01:32:29.396Z,10.40
2023-03-18T01:35:55.057Z,10.40
2023-03-18T01:39:17.088Z,10.30
2023-03-18T01:42:39.161Z,10.40
2023-03-18T01:46:01.937Z,10.50
2023-03-18T01:49:24.653Z,10.60
2023-03-18T01:52:49.072Z,10.60
2023-03-18T01:56:11.000Z,10.70
2023-03-18T01:59:33.649Z,10.80
2023-03-18T02:02:55.307Z,10.90
2023-03-18T02:06:16.946Z,11.00
2023-03-18T02:09:39.976Z,11.10
2023-03-18T02:13:03.656Z,11.00
2023-03-18T02:16:26.688Z,11.00
2023-03-18T02:19:54.386Z,11.00
2023-03-18T02:23:23.921Z,10.90
2023-03-18T02:26:49.979Z,10.80
2023-03-18T02:30:14.578Z,10.80
2023-03-18T02:33:37.420Z,10.70
2023-03-18T02:36:59.274Z,10.60
2023-03-18T02:40:23.633Z,10.50
2023-03-18T02:43:45.771Z,10.40
2023-03-18T02:47:11.337Z,10.40
2023-03-18T02:50:33.215Z,10.30
2023-03-18T02:53:56.982Z,10.40
2023-03-18T02:57:18.546Z,10.40
2023-03-18T03:00:40.141Z,10.40
2023-03-18T03:04:03.825Z,10.40
2023-03-18T03:07:26.231Z,10.30
2023-03-18T03:10:48.124Z,10.30
2023-03-18T03:14:09.892Z,10.20
2023-03-18T03:17:31.474Z,10.20
2023-03-18T03:20:54.429Z,10.20
2023-03-18T03:24:16.021Z,10.20
2023-03-18T03:27:37.683Z,10.30
2023-03-18T03:30:59.452Z,10.30
2023-03-18T03:34:21.069Z,10.30
2023-03-18T03:37:44.334Z,10.20
2023-03-18T03:41:10.214Z,10.10
2023-03-18T03:44:31.862Z,10.00
2023-03-18T03:47:53.531Z,9.90
2023-03-18T03:51:15.193Z,9.80
2023-03-18T03:54:38.176Z,9.60
2023-03-18T03:57:59.778Z,9.50
2023-03-18T04:01:21.387Z,9.40
2023-03-18T04:04:43.233Z,9.40
2023-03-18T04:08:04.917Z,9.40
2023-03-18T04:11:27.848Z,9.30
2023-03-18T04:14:51.690Z,9.30
2023-03-18T04:18:13.484Z,9.30
2023-03-18T04:21:35.064Z,9.20
2023-03-18T04:24:56.741Z,9.10
2023-03-18T04:28:19.663Z,9.20
2023-03-18T04:31:43.692Z,9.20
2023-03-18T04:35:05.791Z,9.20
2023-03-18T04:38:27.401Z,9.10
2023-03-18T04:41:49.054Z,9.00
2023-03-18T04:45:12.273Z,8.90
2023-03-18T04:48:33.881Z,8.80
2023-03-18T04:51:55.654Z,8.70
2023-03-18T04:55:17.288Z,8.70
2023-03-18T04:58:38.893Z,8.60
2023-03-18T05:02:01.813Z,8.60
2023-03-18T05:05:23.480Z,8.50
2023-03-18T05:08:45.049Z,8.30
2023-03-18T05:12:07.016Z,8.30
2023-03-18T05:15:28.613Z,8.20
2023-03-18T05:18:53.294Z,8.00
2023-03-18T05:22:15.628Z,7.90
2023-03-18T05:25:37.204Z,7.80
2023-03-18T05:28:58.964Z,7.70
2023-03-18T05:32:20.578Z,7.70
2023-03-18T05:35:43.531Z,7.60
2023-03-18T05:39:05.181Z,7.40
2023-03-18T05:42:26.897Z,7.30
2023-03-18T05:45:48.523Z,7.30
2023-03-18T05:49:10.140Z,7.20
2023-03-18T05:52:33.084Z,7.10
2023-03-18T05:55:54.671Z,7.00
2023-03-18T05:59:16.309Z,7.10
2023-03-18T06:02:37.928Z,7.10
2023-03-18T06:05:59.543Z,7.20
2023-03-18T06:09:22.781Z,7.30
2023-03-18T06:12:44.677Z,7.40
2023-03-18T06:16:06.420Z,7.30
2023-03-18T06:19:28.031Z,7.30
2023-03-18T06:22:49.779Z,7.30
2023-03-18T06:26:12.877Z,7.30
2023-03-18T06:29:34.699Z,7.40
2023-03-18T06:32:56.346Z,7.40
2023-03-18T06:36:18.109Z,7.40
2023-03-18T06:39:41.239Z,7.60
2023-03-18T06:43:04.354Z,7.70
2023-03-18T06:46:25.996Z,7.90
2023-03-18T06:49:48.256Z,8.00
2023-03-18T06:53:09.944Z,8.20
2023-03-18T06:56:31.554Z,8.30
2023-03-18T06:59:54.565Z,8.40
2023-03-18T07:03:16.162Z,8.40
2023-03-18T07:06:37.791Z,8.40
2023-03-18T07:09:59.416Z,8.50
2023-03-18T07:13:21.041Z,8.60
2023-03-18T07:16:44.027Z,8.90
2023-03-18T07:20:06.126Z,9.10
2023-03-18T07:23:27.707Z,9.40
2023-03-18T07:26:49.280Z,9.60
2023-03-18T07:30:11.622Z,9.80
2023-03-18T07:33:34.558Z,9.90
2023-03-18T07:36:56.159Z,10.00
2023-03-18T07:40:18.939Z,10.30
2023-03-18T07:43:40.593Z,10.70
2023-03-18T07:47:02.226Z,11.20
2023-03-18T07:50:25.209Z,12.30
2023-03-18T07:53:46.875Z,14.20
2023-03-18T07:57:08.618Z,16.30
2023-03-18T08:00:30.499Z,18.30
2023-03-18T08:03:52.206Z,19.90
2023-03-18T08:07:15.297Z,21.00
2023-03-18T08:10:36.924Z,21.70
2023-03-18T08:13:58.510Z,22.10
2023-03-18T08:17:20.116Z,22.80
2023-03-18T08:20:41.704Z,22.20
2023-03-18T08:24:05.044Z,21.70
2023-03-18T08:27:26.699Z,21.60
2023-03-18T08:30:48.279Z,22.00
2023-03-18T08:34:10.053Z,22.00
2023-03-18T08:37:31.676Z,22.30
2023-03-18T08:40:54.650Z,22.90
2023-03-18T08:44:16.235Z,22.60
2023-03-18T08:47:39.113Z,22.10
2023-03-18T08:51:02.841Z,22.60
2023-03-18T08:54:24.461Z,22.90
2023-03-18T08:57:47.422Z,23.00
2023-03-18T09:01:11.813Z,22.90
2023-03-18T09:04:33.640Z,22.90
2023-03-18T09:07:55.234Z,22.90
2023-03-18T09:11:16.797Z,22.80
2023-03-18T09:14:40.007Z,22.50
2023-03-18T09:18:11.079Z,22.50
2023-03-18T09:21:34.011Z,22.30
2023-03-18T09:24:56.036Z,22.50
2023-03-18T09:28:19.054Z,22.70
2023-03-18T09:31:43.266Z,22.80
2023-03-18T09:35:05.353Z,22.70
2023-03-18T09:38:26.959Z,22.40
2023-03-18T09:41:58.791Z,22.20
2023-03-18T09:45:24.326Z,22.10
2023-03-18T09:49:18.964Z,21.80
2023-03-18T09:52:45.100Z,21.60
2023-03-18T09:56:11.864Z,21.40
2023-03-18T09:59:37.701Z,21.60
2023-03-18T10:03:04.518Z,21.70
2023-03-18T10:06:27.564Z,21.50
2023-03-18T10:09:53.151Z,20.90
2023-03-18T10:13:18.941Z,20.70
2023-03-18T10:16:45.297Z,20.40
2023-03-18T10:20:15.372Z,20.50
2023-03-18T10:23:42.585Z,20.30
2023-03-18T10:27:13.920Z,20.00
2023-03-18T10:30:41.472Z,19.70
2023-03-18T10:34:07.900Z,19.50
2023-03-18T10:37:36.342Z,19.30
2023-03-18T10:40:58.437Z,19.40
2023-03-18T10:44:22.409Z,19.20
2023-03-18T10:47:46.163Z,18.70
2023-03-18T10:51:11.833Z,18.40
2023-03-18T10:54:36.311Z,18.30
2023-03-18T10:57:57.921Z,18.10
2023-03-18T11:01:23.195Z,18.00
2023-03-18T11:04:47.196Z,18.10
2023-03-18T11:08:26.975Z,18.20
2023-03-18T11:11:49.371Z,18.30
2023-03-18T11:15:11.555Z,18.50
2023-03-18T11:18:34.503Z,18.60
2023-03-18T11:22:00.303Z,18.50
2023-03-18T11:25:22.601Z,18.50
2023-03-18T11:28:44.970Z,18.40
2023-03-18T11:32:22.629Z,18.40
2023-03-18T11:35:46.636Z,18.20
2023-03-18T11:39:18.333Z,18.10
2023-03-18T11:42:40.422Z,18.10
2023-03-18T11:46:04.059Z,18.00
2023-03-18T11:49:26.644Z,18.00
2023-03-18T11:52:52.225Z,18.00
2023-03-18T11:56:16.688Z,18.10
2023-03-18T11:59:45.354Z,18.10
2023-03-18T12:03:29.826Z,18.30
2023-03-18T12:06:59.755Z,18.20
2023-03-18T12:10:25.079Z,18.20
2023-03-18T12:13:55.125Z,18.20
2023-03-18T12:17:21.752Z,18.20
2023-03-18T12:20:49.226Z,18.30
2023-03-18T12:24:21.560Z,18.30
2023-03-18T12:27:47.759Z,18.40
2023-03-18T12:31:30.365Z,18.50
2023-03-18T12:34:59.711Z,18.60
2023-03-18T12:38:51.316Z,18.70
2023-03-18T12:42:16.799Z,18.80
2023-03-18T12:45:41.725Z,18.80
2023-03-18T12:49:08.749Z,18.80
2023-03-18T12:52:35.553Z,18.80
2023-03-18T12:55:59.348Z,18.80
2023-03-18T12:59:24.323Z,18.70
2023-03-18T13:02:53.102Z,18.80
2023-03-18T13:06:17.824Z,18.90
2023-03-18T13:09:41.483Z,18.90
2023-03-18T13:13:06.496Z,18.90
2023-03-18T13:16:28.630Z,18.90
2023-03-18T13:19:52.889Z,18.90
2023-03-18T13:23:16.758Z,18.80
2023-03-18T13:26:46.869Z,18.70
2023-03-18T13:30:13.578Z,18.60
2023-03-18T13:33:50.049Z,18.70
2023-03-18T13:37:23.697Z,18.80
2023-03-18T13:40:51.418Z,18.80
2023-03-18T13:44:15.543Z,18.90
2023-03-18T13:47:38.355Z,18.90
2023-03-18T13:51:13.936Z,18.90
2023-03-18T13:54:38.623Z,19.00
2023-03-18T13:58:20.658Z,19.30
2023-03-18T14:01:48.274Z,19.60
2023-03-18T14:05:24.881Z,19.70
2023-03-18T14:08:47.913Z,19.60
2023-03-18T14:12:19.027Z,19.10
2023-03-18T14:15:42.433Z,18.90
2023-03-18T14:19:06.601Z,18.60
2023-03-18T14:22:29.163Z,18.50
2023-03-18T14:25:59.378Z,18.40
2023-03-18T14:29:24.995Z,18.50
2023-03-18T14:32:56.090Z,18.60
2023-03-18T14:36:26.655Z,18.60
2023-03-18T14:39:49.557Z,18.60
2023-03-18T14:43:19.700Z,18.60
2023-03-18T14:46:44.752Z,18.80
2023-03-18T14:50:13.115Z,18.90
2023-03-18T14:53:36.629Z,18.90
2023-03-18T14:57:02.470Z,18.80
2023-03-18T15:00:24.079Z,18.80
2023-03-18T15:03:48.477Z,18.60
2023-03-18T15:07:10.259Z,18.50
2023-03-18T15:10:32.484Z,18.50
2023-03-18T15:13:54.874Z,18.40
2023-03-18T15:17:16.738Z,18.50
2023-03-18T15:20:39.708Z,18.50
2023-03-18T15:24:02.624Z,18.40
2023-03-18T15:27:24.485Z,18.50
2023-03-18T15:30:55.678Z,18.40
2023-03-18T15:34:19.221Z,18.50
2023-03-18T15:37:42.957Z,18.50
2023-03-18T15:41:05.979Z,18.50
2023-03-18T15:44:29.533Z,18.30
2023-03-18T15:47:51.134Z,18.20
2023-03-18T15:51:23.474Z,17.90
2023-03-18T15:54:47.806Z,17.80
2023-03-18T15:58:15.974Z,17.60
2023-03-18T16:01:37.574Z,17.50
2023-03-18T16:05:06.307Z,17.50
2023-03-18T16:08:28.103Z,17.40
2023-03-18T16:11:52.256Z,17.30
2023-03-18T16:15:15.528Z,17.20
2023-03-18T16:18:37.131Z,17.20
2023-03-18T16:21:59.182Z,17.20
2023-03-18T16:25:20.892Z,17.10
2023-03-18T16:28:46.050Z,17.10
2023-03-18T16:32:11.211Z,17.10
2023-03-18T16:35:34.039Z,17.00
2023-03-18T16:38:55.884Z,16.90
2023-03-18T16:42:17.506Z,16.70
2023-03-18T16:45:40.619Z,16.60
2023-03-18T16:49:02.237Z,16.40
2023-03-18T16:52:23.825Z,16.20
2023-03-18T16:55:46.366Z,16.10
2023-03-18T16:59:11.196Z,16.00
2023-03-18T17:02:35.021Z,15.90
2023-03-18T17:05:56.660Z,15.70
2023-03-18T17:09:18.380Z,15.60
2023-03-18T17:12:41.064Z,15.50
2023-03-18T17:16:02.666Z,15.40
2023-03-18T17:19:25.955Z,15.30
2023-03-18T17:22:47.853Z,15.10
2023-03-18T17:26:11.686Z,15.00
2023-03-18T17:29:33.303Z,14.80
2023-03-18T17:32:55.188Z,14.70
2023-03-18T17:36:18.162Z,14.50
2023-03-18T17:39:39.804Z,14.40
2023-03-18T17:43:01.376Z,14.10
2023-03-18T17:46:23.065Z,14.00
2023-03-18T17:49:44.688Z,13.90
2023-03-18T17:53:18.849Z,13.80
2023-03-18T17:56:40.450Z,13.80
2023-03-18T18:00:02.096Z,13.70
2023-03-18T18:03:24.659Z,13.60
2023-03-18T18:06:48.723Z,13.50
2023-03-18T18:10:13.303Z,13.40
2023-03-18T18:13:34.929Z,13.30
2023-03-18T18:16:56.537Z,13.30
2023-03-18T18:20:18.774Z,13.30
2023-03-18T18:23:40.922Z,13.20
2023-03-18T18:27:03.999Z,13.10
2023-03-18T18:30:25.602Z,13.00
2023-03-18T18:33:47.903Z,12.90
2023-03-18T18:37:09.531Z,12.80
2023-03-18T18:40:31.157Z,12.70
2023-03-18T18:43:54.070Z,12.60
2023-03-18T18:47:17.117Z,12.50
2023-03-18T18:50:38.723Z,12.40
2023-03-18T18:54:00.331Z,12.30
2023-03-18T18:57:23.952Z,12.30
2023-03-18T19:00:47.875Z,12.20
2023-03-18T19:04:13.067Z,12.10
2023-03-18T19:07:34.835Z,12.10
2023-03-18T19:10:57.226Z,12.00
2023-03-18T19:14:19.794Z,11.90
2023-03-18T19:17:42.883Z,11.80
2023-03-18T19:21:05.029Z,11.70
2023-03-18T19:24:28.312Z,11.70
2023-03-18T19:27:50.426Z,11.60
2023-03-18T19:31:12.811Z,11.60
2023-03-18T19:34:36.207Z,11.50
2023-03-18T19:37:57.936Z,11.50
2023-03-18T19:41:19.957Z,11.40
2023-03-18T19:44:42.402Z,11.40
2023-03-18T19:48:07.661Z,11.40
2023-03-18T19:51:32.159Z,11.40
2023-03-18T19:54:54.905Z,11.50
2023-03-18T19:58:25.413Z,11.50
2023-03-18T20:01:50.620Z,11.40
2023-03-18T20:05:15.215Z,11.40
2023-03-18T20:08:38.143Z,11.40
2023-03-18T20:11:59.960Z,11.40
2023-03-18T20:15:22.422Z,11.40
2023-03-18T20:18:44.109Z,11.40
2023-03-18T20:22:05.749Z,11.40
2023-03-18T20:25:31.616Z,11.40
2023-03-18T20:28:53.319Z,11.30
2023-03-18T20:32:15.096Z,11.20
2023-03-18T20:35:38.155Z,11.20
2023-03-18T20:38:59.883Z,11.20
2023-03-18T20:42:25.529Z,11.10
2023-03-18T20:45:47.683Z,11.10
2023-03-18T20:49:09.315Z,11.00
2023-03-18T20:52:33.515Z,11.10
2023-03-18T20:55:56.591Z,11.00
2023-03-18T20:59:22.317Z,11.00
2023-03-18T21:02:47.200Z,11.00
2023-03-18T21:06:11.152Z,11.10
2023-03-18T21:09:32.792Z,11.10
2023-03-18T21:12:54.410Z,11.00
2023-03-18T21:16:17.461Z,11.00
2023-03-18T21:19:39.145Z,11.00
2023-03-18T21:23:01.021Z,11.00
2023-03-18T21:26:23.221Z,11.00
2023-03-18T21:29:44.926Z,10.90
2023-03-18T21:33:16.836Z,10.90
2023-03-18T21:36:38.474Z,10.90
2023-03-18T21:40:00.054Z,10.80
2023-03-18T21:43:27.439Z,10.80
2023-03-18T21:46:49.039Z,10.70
2023-03-18T21:50:22.298Z,10.60
2023-03-18T21:53:44.309Z,10.50
2023-03-18T21:57:05.941Z,10.40
2023-03-18T22:00:27.712Z,10.30
2023-03-18T22:03:49.395Z,10.10
2023-03-18T22:07:13.214Z,10.10
2023-03-18T22:10:35.180Z,10.00
2023-03-18T22:13:56.896Z,9.90
2023-03-18T22:17:23.647Z,9.80
2023-03-18T22:20:46.097Z,9.80
2023-03-18T22:24:13.548Z,9.70
2023-03-18T22:27:35.535Z,9.60
2023-03-18T22:30:57.415Z,9.50
2023-03-18T22:34:21.628Z,9.50
2023-03-18T22:37:43.738Z,9.40
2023-03-18T22:41:12.254Z,9.30
2023-03-18T22:44:33.887Z,9.30
2023-03-18T22:47:58.115Z,9.20
2023-03-18T22:51:21.953Z,9.20
2023-03-18T22:54:43.570Z,9.20
2023-03-18T22:58:06.809Z,9.20
2023-03-18T23:01:30.248Z,9.20
2023-03-18T23:04:52.278Z,9.20
2023-03-18T23:08:14.102Z,9.20
2023-03-18T23:11:35.698Z,9.20
2023-03-18T23:14:58.679Z,9.30
2023-03-18T23:18:20.519Z,9.30
2023-03-18T23:21:42.123Z,9.30
2023-03-18T23:25:03.959Z,9.20
2023-03-18T23:28:25.582Z,9.30
2023-03-18T23:31:48.580Z,9.30
2023-03-18T23:35:10.364Z,9.30
2023-03-18T23:38:31.986Z,9.30
2023-03-18T23:41:53.577Z,9.30
2023-03-18T23:45:15.534Z,9.30
2023-03-18T23:48:38.634Z,9.30
2023-03-18T23:52:00.286Z,9.30
2023-03-18T23:55:34.102Z,9.30
2023-03-18T23:58:56.452Z,9.40
